Time;durP1;ratioP1;P1;durP2;ratioP2;P2;SDS_P1;SDS_P2;PMS_P1;PMS_P2;Temp;Humidity;BMP_temperature;BMP_pressure;BME280_temperature;BME280_humidity;BME280_pressure;Samples;Min_cycle;Max_cycle;Signal;HPM_P1;HPM_P2
2021/10/05 00:00:36;;;;;;;;;;;;;;;;;;2123300;28;20014;-56
2021/10/05 00:01:42;;;;;;;;;;;;;;;;;;2123295;28;20508;-56
2021/10/05 00:02:43;;;;;;;;;;;;;;;;;;2123384;28;19972;-57
2021/10/05 00:03:44;;;;;;;;;;;;;;;;;;2123214;28;19923;-56
2021/10/05 00:04:45;;;;;;;;;;;;;;;;;;2123500;27;20010;-56
2021/10/05 00:05:46;;;;;;;;;;;;;;;;;;2123246;28;20321;-56
2021/10/05 00:06:46;;;;;;;;;;;;;;;;;;2123387;28;19924;-56
2021/10/05 00:07:49;;;;;;;;;;;;;;;;;;2123263;28;19923;-56
2021/10/05 00:08:50;;;;;;;;;;;;;;;;;;2123547;27;20387;-56
2021/10/05 00:09:50;;;;;;;;;;;;;;;;;;2123030;28;19924;-56
2021/10/05 00:10:52;;;;;;;;;;;;;;;;;;2123328;28;19927;-56
2021/10/05 00:11:52;;;;;;;;;;;;;;;;;;2123129;28;20028;-56
2021/10/05 00:12:53;;;;;;;;;;;;;;;;;;2123321;28;19923;-56
2021/10/05 00:13:54;;;;;;;;;;;;;;;;;;2123136;28;19923;-56
2021/10/05 00:14:55;;;;;;;;;;;;;;;;;;2123412;28;19923;-56
2021/10/05 00:15:56;;;;;;;;;;;;;;;;;;2123302;27;19931;-56
2021/10/05 00:16:57;;;;;;;;;;;;;;;;;;2123483;28;19923;-56
2021/10/05 00:17:58;;;;;;;;;;;;;;;;;;2123439;28;19923;-56
2021/10/05 00:18:58;;;;;;;;;;;;;;;;;;2123112;28;19929;-56
2021/10/05 00:19:59;;;;;;;;;;;;;;;;;;2123184;28;19927;-57
2021/10/05 00:21:00;;;;;;;;;;;;;;;;;;2123008;28;19968;-56
2021/10/05 00:22:01;;;;;;;;;;;;;;;;;;2123386;28;20300;-56
2021/10/05 00:23:01;;;;;;;;;;;;;;;;;;2123075;28;19927;-57
2021/10/05 00:24:02;;;;;;;;;;;;;;;;;;2123213;28;19972;-56
2021/10/05 00:25:03;;;;;;;;;;;;;;;;;;2122983;28;19924;-57
2021/10/05 00:26:04;;;;;;;;;;;;;;;;;;2123184;28;19927;-56
2021/10/05 00:27:05;;;;;;;;;;;;;;;;;;2123122;28;19930;-56
2021/10/05 00:28:06;;;;;;;;;;;;;;;;;;2123254;28;20426;-56
2021/10/05 00:29:07;;;;;;;;;;;;;;;;;;2123103;27;20455;-56
2021/10/05 00:30:08;;;;;;;;;;;;;;;;;;2123353;28;19983;-56
2021/10/05 00:31:08;;;;;;;;;;;;;;;;;;2123093;28;19923;-56
2021/10/05 00:32:09;;;;;;;;;;;;;;;;;;2123387;27;20360;-56
2021/10/05 00:33:10;;;;;;;;;;;;;;;;;;2123119;28;19924;-56
2021/10/05 00:34:11;;;;;;;;;;;;;;;;;;2123160;27;20206;-56
2021/10/05 00:35:12;;;;;;;;;;;;;;;;;;2123050;28;19927;-56
2021/10/05 00:36:13;;;;;;;;;;;;;;;;;;2123144;28;19924;-56
2021/10/05 00:37:13;;;;;;;;;;;;;;;;;;2123096;28;20383;-56
2021/10/05 00:38:14;;;;;;;;;;;;;;;;;;2123168;28;20319;-56
2021/10/05 00:39:15;;;;;;;;;;;;;;;;;;2123076;28;19924;-56
2021/10/05 00:40:16;;;;;;;;;;;;;;;;;;2123079;28;19927;-56
2021/10/05 00:41:16;;;;;;;;;;;;;;;;;;2122803;28;19923;-56
2021/10/05 00:42:18;;;;;;;;;;;;;;;;;;2123173;28;19930;-56
2021/10/05 00:43:19;;;;;;;;;;;;;;;;;;2123149;27;19924;-56
2021/10/05 00:44:19;;;;;;;;;;;;;;;;;;2122976;28;19923;-56
2021/10/05 00:45:20;;;;;;;;;;;;;;;;;;2122906;28;19923;-56
2021/10/05 00:46:21;;;;;;;;;;;;;;;;;;2122961;28;19923;-56
2021/10/05 00:47:22;;;;;;;;;;;;;;;;;;2123161;28;19923;-56
2021/10/05 00:48:23;;;;;;;;;;;;;;;;;;2122818;27;20303;-56
2021/10/05 00:49:24;;;;;;;;;;;;;;;;;;2122795;28;19968;-56
2021/10/05 00:50:25;;;;;;;;;;;;;;;;;;2122929;28;19923;-56
2021/10/05 00:51:25;;;;;;;;;;;;;;;;;;2123205;27;19923;-56
2021/10/05 00:52:26;;;;;;;;;;;;;;;;;;2122956;28;19934;-56
2021/10/05 00:53:27;;;;;;;;;;;;;;;;;;2123026;28;19931;-56
2021/10/05 00:54:28;;;;;;;;;;;;;;;;;;2122845;28;19924;-56
2021/10/05 00:55:29;;;;;;;;;;;;;;;;;;2123177;28;19929;-56
2021/10/05 00:56:30;;;;;;;;;;;;;;;;;;2122722;28;20015;-56
2021/10/05 00:57:31;;;;;;;;;;;;;;;;;;2123051;28;19930;-56
2021/10/05 00:58:31;;;;;;;;;;;;;;;;;;2122867;28;19923;-57
2021/10/05 00:59:33;;;;;;;;;;;;;;;;;;2123230;28;19923;-56
2021/10/05 01:00:37;;;;;;;;;;;;;;;;;;2122647;28;20378;-56
2021/10/05 01:01:37;;;;;;;;;;;;;;;;;;2123122;28;19992;-56
2021/10/05 01:02:39;;;;;;;;;;;;;;;;;;2122931;28;19952;-56
2021/10/05 01:03:40;;;;;;;;;;;;;;;;;;2123096;28;20138;-56
2021/10/05 01:04:40;;;;;;;;;;;;;;;;;;2122777;28;20427;-56
2021/10/05 01:05:41;;;;;;;;;;;;;;;;;;2122924;28;19924;-56
2021/10/05 01:06:42;;;;;;;;;;;;;;;;;;2122773;28;19923;-56
2021/10/05 01:07:43;;;;;;;;;;;;;;;;;;2122979;28;20390;-56
2021/10/05 01:08:46;;;;;;;;;;;;;;;;;;2122771;28;19929;-56
2021/10/05 01:09:47;;;;;;;;;;;;;;;;;;2123064;27;20436;-56
2021/10/05 01:10:48;;;;;;;;;;;;;;;;;;2122721;28;19952;-56
2021/10/05 01:11:48;;;;;;;;;;;;;;;;;;2122918;28;19975;-56
2021/10/05 01:12:49;;;;;;;;;;;;;;;;;;2122715;28;19931;-56
2021/10/05 01:13:50;;;;;;;;;;;;;;;;;;2123198;27;19930;-56
2021/10/05 01:14:51;;;;;;;;;;;;;;;;;;2122837;28;19923;-56
2021/10/05 01:15:52;;;;;;;;;;;;;;;;;;2122957;28;19924;-56
2021/10/05 01:16:53;;;;;;;;;;;;;;;;;;2122829;28;19924;-56
2021/10/05 01:17:53;;;;;;;;;;;;;;;;;;2122933;28;20433;-56
2021/10/05 01:18:54;;;;;;;;;;;;;;;;;;2122986;27;20273;-56
2021/10/05 01:19:55;;;;;;;;;;;;;;;;;;2122890;28;19923;-56
2021/10/05 01:20:56;;;;;;;;;;;;;;;;;;2122602;28;19928;-56
2021/10/05 01:21:57;;;;;;;;;;;;;;;;;;2122803;28;19927;-56
2021/10/05 01:22:58;;;;;;;;;;;;;;;;;;2122832;28;19954;-56
2021/10/05 01:23:59;;;;;;;;;;;;;;;;;;2122786;28;19977;-56
2021/10/05 01:25:00;;;;;;;;;;;;;;;;;;2122794;28;19927;-56
2021/10/05 01:26:01;;;;;;;;;;;;;;;;;;2122648;28;19927;-56
2021/10/05 01:27:02;;;;;;;;;;;;;;;;;;2122898;27;20015;-56
2021/10/05 01:28:02;;;;;;;;;;;;;;;;;;2122790;27;20316;-56
2021/10/05 01:29:04;;;;;;;;;;;;;;;;;;2122752;28;20390;-56
2021/10/05 01:30:05;;;;;;;;;;;;;;;;;;2122706;27;20026;-56
2021/10/05 01:31:06;;;;;;;;;;;;;;;;;;2122770;28;19928;-56
2021/10/05 01:32:07;;;;;;;;;;;;;;;;;;2122923;27;19931;-56
2021/10/05 01:33:07;;;;;;;;;;;;;;;;;;2122912;28;20311;-56
2021/10/05 01:34:08;;;;;;;;;;;;;;;;;;2122816;28;19927;-56
2021/10/05 01:35:09;;;;;;;;;;;;;;;;;;2122682;28;19930;-56
2021/10/05 01:36:10;;;;;;;;;;;;;;;;;;2122582;28;20242;-56
2021/10/05 01:37:11;;;;;;;;;;;;;;;;;;2122780;28;19937;-56
2021/10/05 01:38:12;;;;;;;;;;;;;;;;;;2122778;28;19924;-56
2021/10/05 01:39:12;;;;;;;;;;;;;;;;;;2122632;28;19937;-56
2021/10/05 01:40:13;;;;;;;;;;;;;;;;;;2122760;28;19923;-56
2021/10/05 01:41:14;;;;;;;;;;;;;;;;;;2122605;28;20306;-56
2021/10/05 01:42:15;;;;;;;;;;;;;;;;;;2122804;28;20330;-56
2021/10/05 01:43:16;;;;;;;;;;;;;;;;;;2122696;27;20010;-56
2021/10/05 01:44:17;;;;;;;;;;;;;;;;;;2122714;28;19924;-56
2021/10/05 01:45:18;;;;;;;;;;;;;;;;;;2122611;28;20149;-56
2021/10/05 01:46:19;;;;;;;;;;;;;;;;;;2122779;28;19923;-56
2021/10/05 01:47:20;;;;;;;;;;;;;;;;;;2122637;28;19924;-56
2021/10/05 01:48:20;;;;;;;;;;;;;;;;;;2122926;28;19923;-56
2021/10/05 01:49:21;;;;;;;;;;;;;;;;;;2122408;28;19923;-56
2021/10/05 01:50:22;;;;;;;;;;;;;;;;;;2122708;28;20425;-56
2021/10/05 01:51:23;;;;;;;;;;;;;;;;;;2122458;28;19923;-56
2021/10/05 01:52:24;;;;;;;;;;;;;;;;;;2122894;28;19930;-56
2021/10/05 01:53:24;;;;;;;;;;;;;;;;;;2122561;28;19927;-56
2021/10/05 01:54:25;;;;;;;;;;;;;;;;;;2122744;28;19924;-56
2021/10/05 01:55:26;;;;;;;;;;;;;;;;;;2122383;28;19928;-56
2021/10/05 01:56:27;;;;;;;;;;;;;;;;;;2122735;28;19923;-56
2021/10/05 01:57:28;;;;;;;;;;;;;;;;;;2122501;27;19930;-56
2021/10/05 01:58:29;;;;;;;;;;;;;;;;;;2122746;28;19928;-56
2021/10/05 01:59:29;;;;;;;;;;;;;;;;;;2122546;28;19924;-56
2021/10/05 02:00:30;;;;;;;;;;;;;;;;;;2122571;27;19923;-56
2021/10/05 02:01:31;;;;;;;;;;;;;;;;;;2123809;28;19923;-56
2021/10/05 02:02:33;;;;;;;;;;;;;;;;;;2124371;27;19923;-56
2021/10/05 02:03:33;;;;;;;;;;;;;;;;;;2123978;28;20447;-56
2021/10/05 02:04:34;;;;;;;;;;;;;;;;;;2124206;28;20006;-56
2021/10/05 02:05:35;;;;;;;;;;;;;;;;;;2124039;28;19931;-56
2021/10/05 02:06:36;;;;;;;;;;;;;;;;;;2124148;28;19928;-56
2021/10/05 02:07:37;;;;;;;;;;;;;;;;;;2123926;28;19995;-56
2021/10/05 02:08:38;;;;;;;;;;;;;;;;;;2124072;28;19937;-56
2021/10/05 02:09:38;;;;;;;;;;;;;;;;;;2124065;28;19930;-56
2021/10/05 02:10:39;;;;;;;;;;;;;;;;;;2124057;28;19930;-56
2021/10/05 02:11:40;;;;;;;;;;;;;;;;;;2124103;28;19930;-56
2021/10/05 02:12:41;;;;;;;;;;;;;;;;;;2124034;27;19930;-56
2021/10/05 02:13:42;;;;;;;;;;;;;;;;;;2124149;28;19923;-56
2021/10/05 02:14:43;;;;;;;;;;;;;;;;;;2124099;28;19923;-56
2021/10/05 02:15:43;;;;;;;;;;;;;;;;;;2123915;28;19930;-56
2021/10/05 02:16:44;;;;;;;;;;;;;;;;;;2124051;28;20322;-56
2021/10/05 02:17:45;;;;;;;;;;;;;;;;;;2124173;28;19923;-56
2021/10/05 02:18:46;;;;;;;;;;;;;;;;;;2124192;28;20306;-56
2021/10/05 02:19:47;;;;;;;;;;;;;;;;;;2124113;27;19927;-56
2021/10/05 02:20:48;;;;;;;;;;;;;;;;;;2123896;28;19923;-56
2021/10/05 02:21:49;;;;;;;;;;;;;;;;;;2123932;27;20374;-56
2021/10/05 02:22:50;;;;;;;;;;;;;;;;;;2124144;27;19923;-56
2021/10/05 02:25:10;;;;;;;;;;;;;;;;;;2123996;27;20035;-56
2021/10/05 02:26:11;;;;;;;;;;;;;;;;;;2123928;28;20162;-56
2021/10/05 02:27:12;;;;;;;;;;;;;;;;;;2123917;28;19924;-56
2021/10/05 02:28:12;;;;;;;;;;;;;;;;;;2124133;28;19930;-56
2021/10/05 02:29:13;;;;;;;;;;;;;;;;;;2123831;28;19923;-56
2021/10/05 02:30:14;;;;;;;;;;;;;;;;;;2124189;28;19958;-56
2021/10/05 02:31:15;;;;;;;;;;;;;;;;;;2123773;28;19946;-56
2021/10/05 02:32:16;;;;;;;;;;;;;;;;;;2123972;28;19928;-56
2021/10/05 02:33:17;;;;;;;;;;;;;;;;;;2124010;28;19964;-55
2021/10/05 02:34:18;;;;;;;;;;;;;;;;;;2124208;28;19923;-56
2021/10/05 02:35:18;;;;;;;;;;;;;;;;;;2123672;28;20384;-56
2021/10/05 02:36:19;;;;;;;;;;;;;;;;;;2124091;28;20156;-56
2021/10/05 02:37:20;;;;;;;;;;;;;;;;;;2123907;27;20299;-55
2021/10/05 02:38:21;;;;;;;;;;;;;;;;;;2124031;28;19923;-56
2021/10/05 02:39:22;;;;;;;;;;;;;;;;;;2123715;28;19931;-56
2021/10/05 02:40:23;;;;;;;;;;;;;;;;;;2123761;28;19923;-56
2021/10/05 02:41:23;;;;;;;;;;;;;;;;;;2123874;28;19928;-56
2021/10/05 02:42:24;;;;;;;;;;;;;;;;;;2124126;27;19924;-56
2021/10/05 02:43:25;;;;;;;;;;;;;;;;;;2123727;27;19924;-56
2021/10/05 02:44:26;;;;;;;;;;;;;;;;;;2123962;28;19928;-56
2021/10/05 02:45:27;;;;;;;;;;;;;;;;;;2123786;28;19928;-56
2021/10/05 02:46:28;;;;;;;;;;;;;;;;;;2123806;28;20287;-56
2021/10/05 02:47:28;;;;;;;;;;;;;;;;;;2123850;28;20394;-56
2021/10/05 02:48:29;;;;;;;;;;;;;;;;;;2123936;28;19976;-56
2021/10/05 02:49:30;;;;;;;;;;;;;;;;;;2123720;28;20292;-56
2021/10/05 02:50:31;;;;;;;;;;;;;;;;;;2123818;28;20070;-56
2021/10/05 02:51:32;;;;;;;;;;;;;;;;;;2123858;28;19964;-56
2021/10/05 02:52:32;;;;;;;;;;;;;;;;;;2123920;28;20432;-56
2021/10/05 02:53:33;;;;;;;;;;;;;;;;;;2123854;27;20406;-56
2021/10/05 02:54:34;;;;;;;;;;;;;;;;;;2123822;28;20335;-56
2021/10/05 02:55:35;;;;;;;;;;;;;;;;;;2123778;28;19924;-56
2021/10/05 02:56:36;;;;;;;;;;;;;;;;;;2123737;28;19930;-56
2021/10/05 02:57:36;;;;;;;;;;;;;;;;;;2123861;28;19928;-56
2021/10/05 02:58:37;;;;;;;;;;;;;;;;;;2123571;28;19924;-56
2021/10/05 02:59:38;;;;;;;;;;;;;;;;;;2123827;28;20323;-56
2021/10/05 03:00:40;;;;;;;;;;;;;;;;;;2123626;27;20071;-56
2021/10/05 03:01:41;;;;;;;;;;;;;;;;;;2123638;28;20010;-56
2021/10/05 03:02:42;;;;;;;;;;;;;;;;;;2123752;28;19972;-56
2021/10/05 03:03:43;;;;;;;;;;;;;;;;;;2124054;28;19924;-57
2021/10/05 03:04:44;;;;;;;;;;;;;;;;;;2123762;28;19930;-56
2021/10/05 03:05:44;;;;;;;;;;;;;;;;;;2123702;28;19928;-56
2021/10/05 03:06:45;;;;;;;;;;;;;;;;;;2123738;28;19924;-56
2021/10/05 03:07:46;;;;;;;;;;;;;;;;;;2123816;28;20281;-56
2021/10/05 03:08:47;;;;;;;;;;;;;;;;;;2123631;27;20010;-56
2021/10/05 03:09:48;;;;;;;;;;;;;;;;;;2123621;28;19923;-56
2021/10/05 03:10:49;;;;;;;;;;;;;;;;;;2123688;28;19930;-56
2021/10/05 03:11:50;;;;;;;;;;;;;;;;;;2123348;27;19923;-56
2021/10/05 03:12:50;;;;;;;;;;;;;;;;;;2123784;28;20342;-56
2021/10/05 03:13:52;;;;;;;;;;;;;;;;;;2123540;28;20015;-56
2021/10/05 03:14:53;;;;;;;;;;;;;;;;;;2123760;28;19927;-56
2021/10/05 03:15:53;;;;;;;;;;;;;;;;;;2123416;28;19923;-56
2021/10/05 03:16:54;;;;;;;;;;;;;;;;;;2123818;27;19924;-56
2021/10/05 03:17:55;;;;;;;;;;;;;;;;;;2123514;28;20436;-56
2021/10/05 03:18:56;;;;;;;;;;;;;;;;;;2123935;28;20100;-56
2021/10/05 03:19:56;;;;;;;;;;;;;;;;;;2123620;28;19980;-56
2021/10/05 03:20:57;;;;;;;;;;;;;;;;;;2123594;28;19924;-56
2021/10/05 03:21:58;;;;;;;;;;;;;;;;;;2123417;28;19924;-56
2021/10/05 03:22:59;;;;;;;;;;;;;;;;;;2123842;28;19928;-56
2021/10/05 03:24:00;;;;;;;;;;;;;;;;;;2123666;28;19968;-56
2021/10/05 03:25:01;;;;;;;;;;;;;;;;;;2123756;28;19930;-56
2021/10/05 03:26:04;;;;;;;;;;;;;;;;;;2123366;28;19931;-56
2021/10/05 03:27:06;;;;;;;;;;;;;;;;;;2123628;28;20039;-56
2021/10/05 03:28:07;;;;;;;;;;;;;;;;;;2123323;28;20022;-56
2021/10/05 03:29:10;;;;;;;;;;;;;;;;;;2123762;28;19924;-56
2021/10/05 03:30:11;;;;;;;;;;;;;;;;;;2123480;28;20018;-56
2021/10/05 03:31:12;;;;;;;;;;;;;;;;;;2123699;28;19923;-56
2021/10/05 03:32:13;;;;;;;;;;;;;;;;;;2123515;27;19923;-56
2021/10/05 03:33:14;;;;;;;;;;;;;;;;;;2123626;28;19924;-57
2021/10/05 03:34:14;;;;;;;;;;;;;;;;;;2123334;28;19973;-57
2021/10/05 03:35:15;;;;;;;;;;;;;;;;;;2123886;28;19924;-56
2021/10/05 03:36:16;;;;;;;;;;;;;;;;;;2123357;28;19930;-57
2021/10/05 03:37:17;;;;;;;;;;;;;;;;;;2123703;28;20293;-56
2021/10/05 03:38:18;;;;;;;;;;;;;;;;;;2123385;28;20277;-56
2021/10/05 03:39:19;;;;;;;;;;;;;;;;;;2123690;28;19924;-56
2021/10/05 03:40:20;;;;;;;;;;;;;;;;;;2123364;27;20015;-56
2021/10/05 03:41:23;;;;;;;;;;;;;;;;;;2123501;27;19927;-56
2021/10/05 03:42:23;;;;;;;;;;;;;;;;;;2123297;28;20006;-56
2021/10/05 03:43:24;;;;;;;;;;;;;;;;;;2123572;27;20407;-56
2021/10/05 03:44:25;;;;;;;;;;;;;;;;;;2123550;28;19924;-56
2021/10/05 03:45:26;;;;;;;;;;;;;;;;;;2123520;28;19927;-56
2021/10/05 03:46:27;;;;;;;;;;;;;;;;;;2123417;28;19927;-56
2021/10/05 03:47:28;;;;;;;;;;;;;;;;;;2123377;27;20291;-57
2021/10/05 03:48:28;;;;;;;;;;;;;;;;;;2123552;28;19931;-56
2021/10/05 03:49:29;;;;;;;;;;;;;;;;;;2123502;28;20291;-57
2021/10/05 03:50:30;;;;;;;;;;;;;;;;;;2123261;28;19923;-56
2021/10/05 03:51:31;;;;;;;;;;;;;;;;;;2123476;28;19923;-57
2021/10/05 03:52:32;;;;;;;;;;;;;;;;;;2123315;28;20372;-56
2021/10/05 03:53:33;;;;;;;;;;;;;;;;;;2123478;28;19937;-57
2021/10/05 03:54:34;;;;;;;;;;;;;;;;;;2123462;28;20022;-57
2021/10/05 03:55:35;;;;;;;;;;;;;;;;;;2123369;28;19923;-57
2021/10/05 03:56:36;;;;;;;;;;;;;;;;;;2123523;28;19977;-56
2021/10/05 03:57:38;;;;;;;;;;;;;;;;;;2123402;28;19931;-56
2021/10/05 03:58:39;;;;;;;;;;;;;;;;;;2123398;28;20014;-56
2021/10/05 03:59:40;;;;;;;;;;;;;;;;;;2123417;28;19923;-56
2021/10/05 04:00:41;;;;;;;;;;;;;;;;;;2123112;28;19968;-56
2021/10/05 04:01:42;;;;;;;;;;;;;;;;;;2123147;28;20375;-57
2021/10/05 04:02:43;;;;;;;;;;;;;;;;;;2123516;28;19924;-56
2021/10/05 04:03:43;;;;;;;;;;;;;;;;;;2123233;28;19924;-56
2021/10/05 04:04:44;;;;;;;;;;;;;;;;;;2123541;28;19930;-57
2021/10/05 04:05:45;;;;;;;;;;;;;;;;;;2123124;28;19930;-56
2021/10/05 04:06:46;;;;;;;;;;;;;;;;;;2123419;27;19934;-57
2021/10/05 04:07:47;;;;;;;;;;;;;;;;;;2123227;28;19927;-57
2021/10/05 04:08:47;;;;;;;;;;;;;;;;;;2123495;28;19923;-57
2021/10/05 04:09:48;;;;;;;;;;;;;;;;;;2123278;28;19983;-57
2021/10/05 04:10:49;;;;;;;;;;;;;;;;;;2123235;28;20337;-57
2021/10/05 04:11:50;;;;;;;;;;;;;;;;;;2123182;28;19953;-57
2021/10/05 04:12:51;;;;;;;;;;;;;;;;;;2123230;28;20030;-57
2021/10/05 04:13:52;;;;;;;;;;;;;;;;;;2123183;28;20014;-57
2021/10/05 04:14:53;;;;;;;;;;;;;;;;;;2123216;27;19930;-58
2021/10/05 04:15:54;;;;;;;;;;;;;;;;;;2123375;28;19923;-58
2021/10/05 04:16:55;;;;;;;;;;;;;;;;;;2123210;27;20383;-57
2021/10/05 04:17:56;;;;;;;;;;;;;;;;;;2123401;28;19923;-57
2021/10/05 04:19:00;;;;;;;;;;;;;;;;;;2123227;28;19923;-59
2021/10/05 04:20:01;;;;;;;;;;;;;;;;;;2123477;28;19924;-58
2021/10/05 04:21:02;;;;;;;;;;;;;;;;;;2122957;28;20145;-57
2021/10/05 04:22:03;;;;;;;;;;;;;;;;;;2123280;28;19930;-57
2021/10/05 04:23:04;;;;;;;;;;;;;;;;;;2122992;27;19930;-58
2021/10/05 04:24:04;;;;;;;;;;;;;;;;;;2122521;28;19924;-58
2021/10/05 04:25:06;;;;;;;;;;;;;;;;;;2123261;28;20450;-57
2021/10/05 04:26:07;;;;;;;;;;;;;;;;;;2123125;28;19980;-58
2021/10/05 04:27:10;;;;;;;;;;;;;;;;;;2123015;28;20322;-58
2021/10/05 04:28:11;;;;;;;;;;;;;;;;;;2123200;28;19955;-58
2021/10/05 04:29:12;;;;;;;;;;;;;;;;;;2123165;28;20292;-58
2021/10/05 04:30:13;;;;;;;;;;;;;;;;;;2123194;28;19931;-58
2021/10/05 04:31:13;;;;;;;;;;;;;;;;;;2122959;28;19927;-58
2021/10/05 04:32:14;;;;;;;;;;;;;;;;;;2123319;27;19923;-57
2021/10/05 04:33:15;;;;;;;;;;;;;;;;;;2123127;28;19967;-58
2021/10/05 04:34:16;;;;;;;;;;;;;;;;;;2123340;28;20272;-57
2021/10/05 04:35:17;;;;;;;;;;;;;;;;;;2123064;28;19979;-58
2021/10/05 04:36:17;;;;;;;;;;;;;;;;;;2123281;28;19923;-57
2021/10/05 04:37:18;;;;;;;;;;;;;;;;;;2122937;28;19973;-58
2021/10/05 04:38:19;;;;;;;;;;;;;;;;;;2123382;28;19923;-57
2021/10/05 04:39:20;;;;;;;;;;;;;;;;;;2122982;28;20020;-58
2021/10/05 04:40:21;;;;;;;;;;;;;;;;;;2122968;28;19923;-58
2021/10/05 04:41:21;;;;;;;;;;;;;;;;;;2122835;28;19931;-58
2021/10/05 04:42:24;;;;;;;;;;;;;;;;;;2123163;28;19931;-58
2021/10/05 04:43:25;;;;;;;;;;;;;;;;;;2123066;28;20068;-58
2021/10/05 04:44:25;;;;;;;;;;;;;;;;;;2123011;28;19923;-58
2021/10/05 04:45:26;;;;;;;;;;;;;;;;;;2123029;28;20383;-58
2021/10/05 04:46:27;;;;;;;;;;;;;;;;;;2122946;28;19934;-58
2021/10/05 04:47:28;;;;;;;;;;;;;;;;;;2123377;28;19923;-58
2021/10/05 04:48:29;;;;;;;;;;;;;;;;;;2123009;28;20261;-58
2021/10/05 04:49:30;;;;;;;;;;;;;;;;;;2123136;27;19931;-58
2021/10/05 04:50:30;;;;;;;;;;;;;;;;;;2122872;28;19948;-58
2021/10/05 04:51:33;;;;;;;;;;;;;;;;;;2123230;28;19927;-58
2021/10/05 04:52:34;;;;;;;;;;;;;;;;;;2123033;28;20014;-58
2021/10/05 04:53:35;;;;;;;;;;;;;;;;;;2123150;28;19923;-58
2021/10/05 04:54:36;;;;;;;;;;;;;;;;;;2122761;28;19927;-58
2021/10/05 04:55:37;;;;;;;;;;;;;;;;;;2122971;28;19928;-58
2021/10/05 04:56:38;;;;;;;;;;;;;;;;;;2122748;28;20406;-58
2021/10/05 04:57:39;;;;;;;;;;;;;;;;;;2123081;28;20263;-58
2021/10/05 04:58:39;;;;;;;;;;;;;;;;;;2122907;28;20322;-58
2021/10/05 04:59:40;;;;;;;;;;;;;;;;;;2123065;28;19982;-58
2021/10/05 05:00:41;;;;;;;;;;;;;;;;;;2122576;28;19930;-58
2021/10/05 05:01:42;;;;;;;;;;;;;;;;;;2123023;28;20150;-58
2021/10/05 05:02:43;;;;;;;;;;;;;;;;;;2122978;28;19930;-58
2021/10/05 05:03:44;;;;;;;;;;;;;;;;;;2123119;28;19928;-58
2021/10/05 05:04:45;;;;;;;;;;;;;;;;;;2122816;28;19923;-58
2021/10/05 05:05:46;;;;;;;;;;;;;;;;;;2122975;28;19924;-58
2021/10/05 05:06:47;;;;;;;;;;;;;;;;;;2122756;28;19928;-58
2021/10/05 05:07:47;;;;;;;;;;;;;;;;;;2123143;28;19923;-58
2021/10/05 05:08:48;;;;;;;;;;;;;;;;;;2122697;28;19924;-58
2021/10/05 05:09:49;;;;;;;;;;;;;;;;;;2122997;28;19931;-58
2021/10/05 05:10:50;;;;;;;;;;;;;;;;;;2122616;28;19971;-59
2021/10/05 05:11:51;;;;;;;;;;;;;;;;;;2123104;28;19923;-58
2021/10/05 05:12:52;;;;;;;;;;;;;;;;;;2122934;28;19931;-58
2021/10/05 05:13:53;;;;;;;;;;;;;;;;;;2122959;28;19930;-58
2021/10/05 05:14:54;;;;;;;;;;;;;;;;;;2122845;28;19930;-58
2021/10/05 05:15:55;;;;;;;;;;;;;;;;;;2122738;28;19923;-58
2021/10/05 05:16:56;;;;;;;;;;;;;;;;;;2122881;28;20006;-58
2021/10/05 05:17:56;;;;;;;;;;;;;;;;;;2122652;28;20277;-58
2021/10/05 05:18:57;;;;;;;;;;;;;;;;;;2122713;28;19931;-58
2021/10/05 05:19:58;;;;;;;;;;;;;;;;;;2122565;28;19927;-58
2021/10/05 05:20:59;;;;;;;;;;;;;;;;;;2122761;28;19923;-57
2021/10/05 05:22:00;;;;;;;;;;;;;;;;;;2122668;28;19972;-58
2021/10/05 05:23:00;;;;;;;;;;;;;;;;;;2122645;28;19931;-58
2021/10/05 05:24:01;;;;;;;;;;;;;;;;;;2122581;28;19928;-58
2021/10/05 05:25:02;;;;;;;;;;;;;;;;;;2122929;27;19951;-58
2021/10/05 05:26:03;;;;;;;;;;;;;;;;;;2122700;28;20265;-59
2021/10/05 05:27:04;;;;;;;;;;;;;;;;;;2122753;28;20428;-59
2021/10/05 05:28:04;;;;;;;;;;;;;;;;;;2122680;28;19924;-59
2021/10/05 05:29:05;;;;;;;;;;;;;;;;;;2122896;28;19935;-44
2021/10/05 05:30:06;;;;;;;;;;;;;;;;;;2122734;28;20023;-44
2021/10/05 05:31:07;;;;;;;;;;;;;;;;;;2122536;28;19923;-44
2021/10/05 05:32:08;;;;;;;;;;;;;;;;;;2122727;27;19962;-44
2021/10/05 05:33:09;;;;;;;;;;;;;;;;;;2122655;28;20403;-43
2021/10/05 05:34:09;;;;;;;;;;;;;;;;;;2122654;28;19923;-44
2021/10/05 05:35:10;;;;;;;;;;;;;;;;;;2122643;27;20039;-44
2021/10/05 05:36:11;;;;;;;;;;;;;;;;;;2122509;28;19923;-44
2021/10/05 05:37:12;;;;;;;;;;;;;;;;;;2122672;28;19988;-44
2021/10/05 05:38:13;;;;;;;;;;;;;;;;;;2122547;28;20582;-44
2021/10/05 05:39:13;;;;;;;;;;;;;;;;;;2122755;28;19952;-44
2021/10/05 05:40:14;;;;;;;;;;;;;;;;;;2122723;27;19930;-44
2021/10/05 05:41:15;;;;;;;;;;;;;;;;;;2122477;28;19923;-44
2021/10/05 05:42:16;;;;;;;;;;;;;;;;;;2122644;28;19927;-44
2021/10/05 05:43:17;;;;;;;;;;;;;;;;;;2122478;28;19927;-44
2021/10/05 05:44:17;;;;;;;;;;;;;;;;;;2122636;28;19930;-44
2021/10/05 05:45:18;;;;;;;;;;;;;;;;;;2122271;28;19975;-44
2021/10/05 05:46:19;;;;;;;;;;;;;;;;;;2122686;28;19935;-44
2021/10/05 05:47:20;;;;;;;;;;;;;;;;;;2122524;28;19931;-44
2021/10/05 05:48:21;;;;;;;;;;;;;;;;;;2122860;28;19924;-44
2021/10/05 05:49:22;;;;;;;;;;;;;;;;;;2122334;28;20321;-44
2021/10/05 05:50:22;;;;;;;;;;;;;;;;;;2122515;28;19927;-43
2021/10/05 05:51:23;;;;;;;;;;;;;;;;;;2122435;28;19923;-44
2021/10/05 05:52:24;;;;;;;;;;;;;;;;;;2122795;28;19924;-44
2021/10/05 05:53:25;;;;;;;;;;;;;;;;;;2122664;28;19930;-44
2021/10/05 05:54:26;;;;;;;;;;;;;;;;;;2122764;28;19960;-44
2021/10/05 05:55:27;;;;;;;;;;;;;;;;;;2122169;28;19927;-44
2021/10/05 05:56:28;;;;;;;;;;;;;;;;;;2122743;28;19923;-44
2021/10/05 05:57:29;;;;;;;;;;;;;;;;;;2122375;27;20397;-43
2021/10/05 05:58:30;;;;;;;;;;;;;;;;;;2122717;28;19923;-44
2021/10/05 05:59:30;;;;;;;;;;;;;;;;;;2122287;28;19923;-44
2021/10/05 06:00:31;;;;;;;;;;;;;;;;;;2122615;28;19929;-44
2021/10/05 06:01:33;;;;;;;;;;;;;;;;;;2122371;28;19923;-43
2021/10/05 06:02:34;;;;;;;;;;;;;;;;;;2122642;27;20291;-44
2021/10/05 06:03:35;;;;;;;;;;;;;;;;;;2122594;27;19924;-44
2021/10/05 06:04:35;;;;;;;;;;;;;;;;;;2122816;28;20006;-43
2021/10/05 06:05:36;;;;;;;;;;;;;;;;;;2122363;28;19928;-44
2021/10/05 06:06:37;;;;;;;;;;;;;;;;;;2122695;28;19928;-44
2021/10/05 06:07:38;;;;;;;;;;;;;;;;;;2122525;28;19924;-43
2021/10/05 06:08:39;;;;;;;;;;;;;;;;;;2122693;28;19923;-44
2021/10/05 06:09:40;;;;;;;;;;;;;;;;;;2122491;28;19930;-44
2021/10/05 06:10:42;;;;;;;;;;;;;;;;;;2122535;28;19946;-44
2021/10/05 06:11:43;;;;;;;;;;;;;;;;;;2122495;28;20060;-44
2021/10/05 06:12:43;;;;;;;;;;;;;;;;;;2122770;28;19984;-44
2021/10/05 06:13:44;;;;;;;;;;;;;;;;;;2122519;28;19924;-44
2021/10/05 06:14:45;;;;;;;;;;;;;;;;;;2122423;28;19943;-44
2021/10/05 06:15:46;;;;;;;;;;;;;;;;;;2122565;28;19963;-44
2021/10/05 06:16:47;;;;;;;;;;;;;;;;;;2122508;28;19934;-44
2021/10/05 06:17:49;;;;;;;;;;;;;;;;;;2122678;28;19923;-44
2021/10/05 06:18:50;;;;;;;;;;;;;;;;;;2122585;27;19928;-44
2021/10/05 06:19:52;;;;;;;;;;;;;;;;;;2122676;28;19923;-44
2021/10/05 06:20:52;;;;;;;;;;;;;;;;;;2122313;28;20048;-44
2021/10/05 06:21:53;;;;;;;;;;;;;;;;;;2122716;28;19924;-44
2021/10/05 06:22:54;;;;;;;;;;;;;;;;;;2122468;28;19927;-44
2021/10/05 06:23:55;;;;;;;;;;;;;;;;;;2122662;28;19931;-44
2021/10/05 06:24:56;;;;;;;;;;;;;;;;;;2122402;28;19923;-44
2021/10/05 06:25:57;;;;;;;;;;;;;;;;;;2122606;27;19927;-44
2021/10/05 06:26:58;;;;;;;;;;;;;;;;;;2122471;28;19923;-44
2021/10/05 06:27:58;;;;;;;;;;;;;;;;;;2122636;28;20015;-44
2021/10/05 06:28:59;;;;;;;;;;;;;;;;;;2122453;28;19924;-44
2021/10/05 06:30:00;;;;;;;;;;;;;;;;;;2122467;28;19927;-44
2021/10/05 06:31:01;;;;;;;;;;;;;;;;;;2122240;28;19924;-45
2021/10/05 06:32:02;;;;;;;;;;;;;;;;;;2122423;28;19923;-44
2021/10/05 06:33:03;;;;;;;;;;;;;;;;;;2122360;28;19927;-44
2021/10/05 06:34:04;;;;;;;;;;;;;;;;;;2122542;28;19935;-44
2021/10/05 06:35:05;;;;;;;;;;;;;;;;;;2122427;28;19962;-44
2021/10/05 06:36:07;;;;;;;;;;;;;;;;;;2122432;28;20006;-44
2021/10/05 06:37:08;;;;;;;;;;;;;;;;;;2122500;28;20010;-44
2021/10/05 06:38:09;;;;;;;;;;;;;;;;;;2122358;28;19931;-44
2021/10/05 06:39:09;;;;;;;;;;;;;;;;;;2122368;28;19923;-44
2021/10/05 06:40:10;;;;;;;;;;;;;;;;;;2122339;28;20452;-44
2021/10/05 06:41:11;;;;;;;;;;;;;;;;;;2122248;28;19976;-45
2021/10/05 06:42:12;;;;;;;;;;;;;;;;;;2122431;28;19968;-45
2021/10/05 06:43:13;;;;;;;;;;;;;;;;;;2122446;28;19923;-44
2021/10/05 06:44:14;;;;;;;;;;;;;;;;;;2122196;28;19927;-45
2021/10/05 06:45:15;;;;;;;;;;;;;;;;;;2122464;28;19923;-45
2021/10/05 06:46:15;;;;;;;;;;;;;;;;;;2122283;27;20283;-44
2021/10/05 06:47:16;;;;;;;;;;;;;;;;;;2123300;27;20392;-44
2021/10/05 06:48:17;;;;;;;;;;;;;;;;;;2123723;28;19927;-44
2021/10/05 06:49:18;;;;;;;;;;;;;;;;;;2124024;28;19958;-44
2021/10/05 06:50:19;;;;;;;;;;;;;;;;;;2123615;28;20295;-45
2021/10/05 06:51:19;;;;;;;;;;;;;;;;;;2123882;28;20294;-44
2021/10/05 06:52:21;;;;;;;;;;;;;;;;;;2123605;27;19923;-45
2021/10/05 06:53:22;;;;;;;;;;;;;;;;;;2124031;27;20013;-45
2021/10/05 06:54:22;;;;;;;;;;;;;;;;;;2123702;27;20394;-44
2021/10/05 06:55:23;;;;;;;;;;;;;;;;;;2123829;27;19923;-45
2021/10/05 06:56:25;;;;;;;;;;;;;;;;;;2123756;28;19924;-44
2021/10/05 06:57:26;;;;;;;;;;;;;;;;;;2123991;28;20010;-45